createdAt,value
2022-12-11T00:02:16.878Z,21.90
2022-12-11T00:07:19.547Z,21.80
2022-12-11T00:12:22.576Z,21.80
2022-12-11T00:17:26.594Z,21.80
2022-12-11T00:22:30.646Z,21.80
2022-12-11T00:27:33.331Z,21.70
2022-12-11T00:32:37.860Z,21.60
2022-12-11T00:37:40.618Z,21.60
2022-12-11T00:42:43.342Z,21.60
2022-12-11T00:47:47.336Z,21.60
2022-12-11T00:52:50.054Z,21.60
2022-12-11T00:57:52.735Z,21.60
2022-12-11T01:02:56.784Z,21.50
2022-12-11T01:07:59.501Z,21.50
2022-12-11T01:13:03.139Z,21.40
2022-12-11T01:18:09.436Z,21.50
2022-12-11T01:23:13.813Z,21.40
2022-12-11T01:28:16.501Z,21.40
2022-12-11T01:33:20.502Z,21.40
2022-12-11T01:38:23.178Z,21.40
2022-12-11T01:43:25.846Z,21.40
2022-12-11T01:48:30.915Z,21.40
2022-12-11T01:53:35.489Z,21.40
2022-12-11T01:58:41.560Z,21.30
2022-12-11T02:03:47.414Z,21.30
2022-12-11T02:08:50.098Z,21.20
2022-12-11T02:13:58.066Z,21.20
2022-12-11T02:19:03.791Z,21.20
2022-12-11T02:24:21.080Z,21.10
2022-12-11T02:29:27.366Z,21.20
2022-12-11T02:34:32.529Z,21.10
2022-12-11T02:39:37.490Z,21.20
2022-12-11T02:44:41.701Z,21.20
2022-12-11T02:49:45.639Z,21.10
2022-12-11T02:54:48.725Z,21.10
2022-12-11T02:59:52.871Z,21.10
2022-12-11T03:04:59.474Z,21.00
2022-12-11T03:10:02.198Z,21.00
2022-12-11T03:15:08.398Z,21.00
2022-12-11T03:20:14.081Z,20.90
2022-12-11T03:25:17.958Z,20.90
2022-12-11T03:30:23.380Z,21.00
2022-12-11T03:35:27.361Z,20.90
2022-12-11T03:40:32.437Z,20.90
2022-12-11T03:45:39.294Z,20.90
2022-12-11T03:50:42.621Z,20.80
2022-12-11T03:55:45.782Z,20.90
2022-12-11T04:00:49.751Z,20.80
2022-12-11T04:05:53.614Z,20.80
2022-12-11T04:11:10.242Z,20.90
2022-12-11T04:16:14.285Z,20.80
2022-12-11T04:21:42.735Z,20.70
2022-12-11T04:26:46.221Z,20.70
2022-12-11T04:31:51.434Z,20.70
2022-12-11T04:36:54.135Z,20.80
2022-12-11T04:41:56.782Z,20.70
2022-12-11T04:47:00.784Z,20.80
2022-12-11T04:52:04.104Z,20.70
2022-12-11T04:57:06.781Z,20.70
2022-12-11T05:02:10.793Z,20.70
2022-12-11T05:07:13.733Z,20.60
2022-12-11T05:12:16.382Z,20.60
2022-12-11T05:17:20.648Z,20.70
2022-12-11T05:22:23.310Z,20.60
2022-12-11T05:27:25.993Z,20.70
2022-12-11T05:32:30.270Z,20.70
2022-12-11T05:37:33.877Z,20.60
2022-12-11T05:42:36.593Z,20.60
2022-12-11T05:47:40.645Z,20.60
2022-12-11T05:52:43.282Z,20.60
2022-12-11T05:57:46.037Z,20.50
2022-12-11T06:02:50.119Z,20.60
2022-12-11T06:07:52.892Z,20.50
2022-12-11T06:12:55.585Z,20.60
2022-12-11T06:17:59.846Z,20.50
2022-12-11T06:23:02.610Z,20.50
2022-12-11T06:28:06.537Z,20.60
2022-12-11T06:33:10.552Z,20.50
2022-12-11T06:38:14.076Z,20.50
2022-12-11T06:43:16.690Z,20.50
2022-12-11T06:48:21.122Z,20.50
2022-12-11T06:53:23.742Z,20.50
2022-12-11T06:58:26.469Z,20.50
2022-12-11T07:03:30.468Z,20.40
2022-12-11T07:08:33.690Z,20.40
2022-12-11T07:13:36.730Z,20.50
2022-12-11T07:18:41.553Z,20.40
2022-12-11T07:23:44.330Z,20.40
2022-12-11T07:28:47.350Z,20.40
2022-12-11T07:33:55.534Z,20.40
2022-12-11T07:38:58.216Z,20.40
2022-12-11T07:44:01.202Z,20.40
2022-12-11T07:49:05.950Z,20.40
2022-12-11T07:54:10.632Z,20.40
2022-12-11T07:59:13.491Z,20.40
2022-12-11T08:04:17.530Z,20.40
2022-12-11T08:09:22.542Z,20.40
2022-12-11T08:14:25.216Z,20.40
2022-12-11T08:19:29.205Z,20.40
2022-12-11T08:24:32.365Z,20.40
2022-12-11T08:29:35.100Z,20.30
2022-12-11T08:34:39.117Z,20.40
2022-12-11T08:39:43.336Z,20.40
2022-12-11T08:44:45.973Z,20.30
2022-12-11T08:49:49.940Z,20.40
2022-12-11T08:54:52.593Z,20.40
2022-12-11T08:59:55.337Z,20.40
2022-12-11T09:04:59.459Z,20.40
2022-12-11T09:10:02.141Z,20.30
2022-12-11T09:15:05.397Z,20.30
2022-12-11T09:20:10.006Z,20.40
2022-12-11T09:25:13.007Z,20.40
2022-12-11T09:30:16.472Z,20.20
2022-12-11T09:35:20.522Z,20.30
2022-12-11T09:40:23.753Z,20.30
2022-12-11T09:45:26.453Z,20.30
2022-12-11T09:50:33.299Z,20.30
2022-12-11T09:55:39.641Z,20.30
2022-12-11T10:00:43.139Z,20.30
2022-12-11T10:05:50.556Z,20.30
2022-12-11T10:10:58.855Z,20.30
2022-12-11T10:16:05.027Z,20.30
2022-12-11T10:21:09.814Z,20.30
2022-12-11T10:26:22.494Z,20.30
2022-12-11T10:31:29.505Z,20.30
2022-12-11T10:36:35.227Z,20.20
2022-12-11T10:41:39.129Z,20.30
2022-12-11T10:46:41.872Z,20.30
2022-12-11T10:51:45.983Z,20.30
2022-12-11T10:56:49.524Z,20.20
2022-12-11T11:01:52.290Z,20.20
2022-12-11T11:07:03.520Z,20.30
2022-12-11T11:12:17.201Z,20.20
2022-12-11T11:17:19.869Z,20.30
2022-12-11T11:22:24.095Z,20.30
2022-12-11T11:27:29.186Z,20.30
2022-12-11T11:32:33.665Z,20.30
2022-12-11T11:37:38.502Z,20.30
2022-12-11T11:42:44.524Z,20.30
2022-12-11T11:47:51.628Z,20.30
2022-12-11T11:53:00.034Z,20.30
2022-12-11T11:58:08.063Z,20.30
2022-12-11T12:03:12.089Z,20.30
2022-12-11T12:08:26.179Z,20.30
2022-12-11T12:13:49.870Z,20.30
2022-12-11T12:18:59.522Z,20.30
2022-12-11T12:24:10.559Z,20.30
2022-12-11T12:29:18.339Z,20.30
2022-12-11T12:34:25.563Z,20.40
2022-12-11T12:39:34.613Z,20.30
2022-12-11T12:44:42.556Z,20.40
2022-12-11T12:49:46.650Z,20.20
2022-12-11T12:55:07.447Z,20.40
2022-12-11T13:00:13.358Z,20.30
2022-12-11T13:05:21.659Z,20.30
2022-12-11T13:10:28.534Z,20.40
2022-12-11T13:15:35.769Z,20.40
2022-12-11T13:20:47.489Z,20.30
2022-12-11T13:26:00.379Z,20.20
2022-12-11T13:31:05.305Z,20.40
2022-12-11T13:36:24.537Z,20.30
2022-12-11T13:41:29.123Z,20.40
2022-12-11T13:46:33.381Z,20.40
2022-12-11T13:51:37.321Z,20.50
2022-12-11T13:56:41.323Z,20.40
2022-12-11T14:01:43.957Z,20.50
2022-12-11T14:06:46.705Z,20.60
2022-12-11T14:11:56.456Z,20.60
2022-12-11T14:16:59.746Z,20.60
2022-12-11T14:22:03.521Z,20.70
2022-12-11T14:27:16.909Z,20.60
2022-12-11T14:32:21.957Z,20.70
2022-12-11T14:37:25.179Z,20.80
2022-12-11T14:42:30.808Z,20.80
2022-12-11T14:47:35.977Z,20.80
2022-12-11T14:52:40.204Z,20.90
2022-12-11T14:57:45.289Z,20.90
2022-12-11T15:02:57.271Z,20.90
2022-12-11T15:08:01.133Z,20.80
2022-12-11T15:13:06.622Z,20.90
2022-12-11T15:18:15.956Z,20.90
2022-12-11T15:23:18.957Z,20.70
2022-12-11T15:28:29.688Z,20.70
2022-12-11T15:33:34.806Z,20.70
2022-12-11T15:38:40.591Z,20.60
2022-12-11T15:43:45.143Z,20.50
2022-12-11T15:48:48.439Z,20.50
2022-12-11T15:53:51.121Z,20.50
2022-12-11T15:58:56.102Z,20.50
2022-12-11T16:04:03.314Z,20.40
2022-12-11T16:09:07.650Z,20.40
2022-12-11T16:14:12.888Z,20.40
2022-12-11T16:19:15.515Z,20.40
2022-12-11T16:24:18.141Z,20.30
2022-12-11T16:29:23.250Z,20.30
2022-12-11T16:34:26.621Z,20.30
2022-12-11T16:39:29.290Z,20.20
2022-12-11T16:44:33.377Z,20.20
2022-12-11T16:49:36.096Z,20.20
2022-12-11T16:54:38.791Z,20.10
2022-12-11T16:59:43.329Z,20.20
2022-12-11T17:04:52.119Z,20.10
2022-12-11T17:09:56.453Z,20.10
2022-12-11T17:15:00.481Z,20.10
2022-12-11T17:20:03.383Z,20.00
2022-12-11T17:25:06.147Z,20.00
2022-12-11T17:30:11.013Z,20.10
2022-12-11T17:35:14.209Z,20.10
2022-12-11T17:40:18.849Z,20.00
2022-12-11T17:45:22.849Z,20.00
2022-12-11T17:50:25.491Z,20.00
2022-12-11T17:55:28.200Z,20.00
2022-12-11T18:00:33.547Z,20.00
2022-12-11T18:05:36.599Z,19.90
2022-12-11T18:10:39.330Z,19.90
2022-12-11T18:15:43.413Z,19.90
2022-12-11T18:20:48.710Z,19.90
2022-12-11T18:25:51.413Z,19.80
2022-12-11T18:30:55.448Z,19.90
2022-12-11T18:35:58.155Z,19.80
2022-12-11T18:41:03.314Z,19.90
2022-12-11T18:46:08.468Z,19.80
2022-12-11T18:51:12.645Z,19.80
2022-12-11T18:56:16.685Z,19.80
2022-12-11T19:01:21.494Z,19.80
2022-12-11T19:06:26.369Z,19.80
2022-12-11T19:11:29.974Z,19.70
2022-12-11T19:16:34.988Z,19.80
2022-12-11T19:21:38.519Z,19.80
2022-12-11T19:26:41.302Z,19.70
2022-12-11T19:31:45.406Z,19.70
2022-12-11T19:36:48.322Z,19.70
2022-12-11T19:41:50.948Z,19.60
2022-12-11T19:46:54.997Z,19.70
2022-12-11T19:51:57.707Z,19.70
2022-12-11T19:57:00.378Z,19.70
2022-12-11T20:02:04.409Z,19.70
2022-12-11T20:07:07.119Z,19.60
2022-12-11T20:12:10.442Z,19.70
2022-12-11T20:17:15.419Z,19.60
2022-12-11T20:22:18.224Z,19.60
2022-12-11T20:27:20.858Z,19.60
2022-12-11T20:32:24.902Z,19.60
2022-12-11T20:37:29.008Z,19.60
2022-12-11T20:42:31.663Z,19.60
2022-12-11T20:47:35.658Z,19.60
2022-12-11T20:52:38.512Z,19.50
2022-12-11T20:57:45.102Z,19.60
2022-12-11T21:02:50.356Z,19.60
2022-12-11T21:07:54.210Z,19.50
2022-12-11T21:12:56.918Z,19.50
2022-12-11T21:18:03.463Z,19.50
2022-12-11T21:23:06.514Z,19.60
2022-12-11T21:28:09.231Z,19.50
2022-12-11T21:33:13.231Z,19.50
2022-12-11T21:38:15.900Z,19.60
2022-12-11T21:43:18.588Z,19.50
2022-12-11T21:48:22.670Z,19.50
2022-12-11T21:53:25.324Z,19.50
2022-12-11T21:58:27.955Z,19.50
2022-12-11T22:03:31.957Z,19.50
2022-12-11T22:08:34.657Z,19.50
2022-12-11T22:13:37.327Z,19.50
2022-12-11T22:18:41.327Z,19.50
2022-12-11T22:23:44.616Z,19.50
2022-12-11T22:28:47.582Z,19.40
2022-12-11T22:33:53.549Z,19.40
2022-12-11T22:38:56.377Z,19.50
2022-12-11T22:43:59.626Z,19.40
2022-12-11T22:49:03.742Z,19.50
2022-12-11T22:54:06.576Z,19.40
2022-12-11T22:59:09.242Z,19.40
2022-12-11T23:04:13.465Z,19.40
2022-12-11T23:09:16.133Z,19.30
2022-12-11T23:14:19.390Z,19.40
2022-12-11T23:19:25.624Z,19.40
2022-12-11T23:24:28.517Z,19.40
2022-12-11T23:29:31.397Z,19.40
2022-12-11T23:34:35.422Z,19.40
2022-12-11T23:39:38.070Z,19.30
2022-12-11T23:44:40.941Z,19.30
2022-12-11T23:49:45.014Z,19.30
2022-12-11T23:54:47.642Z,19.40
2022-12-11T23:59:50.342Z,19.40
